METAR Data
IDs: Format: Raw Decoded Include TAF

Data at: 1731 UTC 03 Jun 2020

KBIL 031653Z 33012KT 10SM FEW080 FEW110 BKN200 23/04 A3001 RMK AO2 SLP130 T02330039

KBIL 031120Z 0312/0412 24009KT P6SM BKN180
  FM032200 28013KT P6SM VCSH SCT090 BKN170
  FM040300 VRB05KT P6SM FEW110 SCT220